^^
Grace C. Lehan Memorial Weather Station Historical Data
Daily Summary for January 2, 2022 Units:  Both    English   Metric
Daily Weekly Monthly Yearly
  High: Low: Average:
Temperature: 82.8 °F /  28.2 °C 68.1 °F /  20.1 °C 70.5 °F /  21.4 °C
Dew Point: 73.7 °F /  23.2 °C 66.3 °F /  19.1 °C 68.1 °F /  20.1 °C
Humidity: 95% 73.6% 92%
Wind Speed: 0mph /  0km/h - 0mph /  0km/h
Wind Gust: 2mph /  3.2km/h - -
Wind- -
Pressure: 29.81 in /  1009.4 hPa 29.77 in /  1008 hPa -
Precipitation: 0.00 in /  0 mm    
 
 
Tabular Data for January 2, 2022
Time Temperature Dew Point Pressure Wind Wind Speed Wind Gust Humidity Rainfall Rate (Hourly) solar
00:00 69.8 °F /  21 °C 67.4 °F /  19.7 °C 29.81in /  1009.4hPa Calm     92% 0.00in /  0mm 0 W/m2
00:09 69.6 °F /  20.9 °C 67.2 °F /  19.6 °C 29.81in /  1009.4hPa Calm     92% 0.00in /  0mm 0 W/m2
00:14 69.5 °F /  20.8 °C 67.3 °F /  19.6 °C 29.81in /  1009.4hPa Calm     92.5% 0.00in /  0mm 0 W/m2
00:19 69.5 °F /  20.8 °C 67.4 °F /  19.7 °C 29.81in /  1009.4hPa Calm     93% 0.00in /  0mm 0 W/m2
00:24 69.4 °F /  20.8 °C 67.3 °F /  19.6 °C 29.81in /  1009.4hPa Calm     93% 0.00in /  0mm 0 W/m2
00:29 69.4 °F /  20.8 °C 67.3 °F /  19.6 °C 29.81in /  1009.4hPa Calm     93% 0.00in /  0mm 0 W/m2
00:34 69.3 °F /  20.7 °C 67.2 °F /  19.6 °C 29.81in /  1009.4hPa Calm     93% 0.00in /  0mm 0 W/m2
00:39 69.2 °F /  20.7 °C 67.1 °F /  19.5 °C 29.81in /  1009.4hPa Calm     93% 0.00in /  0mm 0 W/m2
00:44 69.2 °F /  20.7 °C 67.1 °F /  19.5 °C 29.80in /  1009hPa Calm     93% 0.00in /  0mm 0 W/m2
00:49 69.2 °F /  20.7 °C 67.1 °F /  19.5 °C 29.80in /  1009hPa Calm     93% 0.00in /  0mm 0 W/m2
00:54 69.1 °F /  20.6 °C 67 °F /  19.4 °C 29.80in /  1009hPa Calm     93% 0.00in /  0mm 0 W/m2
00:59 69.1 °F /  20.6 °C 67 °F /  19.4 °C 29.80in /  1009hPa Calm     93% 0.00in /  0mm 0 W/m2
01:04 69 °F /  20.6 °C 66.9 °F /  19.4 °C 29.80in /  1009hPa Calm     93% 0.00in /  0mm 0 W/m2
01:09 68.9 °F /  20.5 °C 66.8 °F /  19.3 °C 29.80in /  1009hPa Calm     93% 0.00in /  0mm 0 W/m2
01:14 68.9 °F /  20.5 °C 66.9 °F /  19.4 °C 29.80in /  1009hPa Calm     93.5% 0.00in /  0mm 0 W/m2
01:19 68.8 °F /  20.4 °C 67 °F /  19.4 °C 29.80in /  1009hPa Calm     94% 0.00in /  0mm 0 W/m2
01:24 68.7 °F /  20.4 °C 66.9 °F /  19.4 °C 29.80in /  1009hPa Calm     94% 0.00in /  0mm 0 W/m2
01:29 68.7 °F /  20.4 °C 66.9 °F /  19.4 °C 29.79in /  1008.7hPa Calm     94% 0.00in /  0mm 0 W/m2
01:34 68.6 °F /  20.3 °C 66.8 °F /  19.3 °C 29.79in /  1008.7hPa Calm     94% 0.00in /  0mm 0 W/m2
01:39 68.6 °F /  20.3 °C 66.8 °F /  19.3 °C 29.79in /  1008.7hPa Calm     94% 0.00in /  0mm 0 W/m2
01:44 68.6 °F /  20.3 °C 66.8 °F /  19.3 °C 29.79in /  1008.7hPa Calm     94% 0.00in /  0mm 0 W/m2
01:49 68.5 °F /  20.3 °C 66.7 °F /  19.3 °C 29.79in /  1008.7hPa Calm     94% 0.00in /  0mm 0 W/m2
01:54 68.4 °F /  20.2 °C 66.6 °F /  19.2 °C 29.79in /  1008.7hPa Calm     94% 0.00in /  0mm 0 W/m2
01:59 68.3 °F /  20.2 °C 66.5 °F /  19.2 °C 29.79in /  1008.7hPa Calm     94% 0.00in /  0mm 0 W/m2
02:04 68.2 °F /  20.1 °C 66.4 °F /  19.1 °C 29.79in /  1008.7hPa Calm     94% 0.00in /  0mm 0 W/m2
02:09 68.1 °F /  20.1 °C 66.3 °F /  19.1 °C 29.79in /  1008.7hPa Calm     94% 0.00in /  0mm 0 W/m2
02:14 68.1 °F /  20.1 °C 66.3 °F /  19.1 °C 29.79in /  1008.7hPa Calm     94% 0.00in /  0mm 0 W/m2
02:19 68.1 °F /  20.1 °C 66.3 °F /  19.1 °C 29.79in /  1008.7hPa Calm     94% 0.00in /  0mm 0 W/m2
02:24 68.1 °F /  20.1 °C 66.3 °F /  19.1 °C 29.79in /  1008.7hPa Calm     94% 0.00in /  0mm 0 W/m2
02:29 68.1 °F /  20.1 °C 66.3 °F /  19.1 °C 29.79in /  1008.7hPa Calm     94% 0.00in /  0mm 0 W/m2
02:34 68.1 °F /  20.1 °C 66.4 °F /  19.1 °C 29.78in /  1008.4hPa Calm     94.2% 0.00in /  0mm 0 W/m2
02:39 68.1 °F /  20.1 °C 66.6 °F /  19.2 °C 29.78in /  1008.4hPa Calm     95% 0.00in /  0mm 0 W/m2
02:44 68.1 °F /  20.1 °C 66.6 °F /  19.2 °C 29.78in /  1008.4hPa Calm     95% 0.00in /  0mm 0 W/m2
02:49 68.2 °F /  20.1 °C 66.7 °F /  19.3 °C 29.79in /  1008.7hPa Calm     95% 0.00in /  0mm 0 W/m2
02:54 68.2 °F /  20.1 °C 66.7 °F /  19.3 °C 29.79in /  1008.7hPa Calm     95% 0.00in /  0mm 0 W/m2
02:59 68.2 °F /  20.1 °C 66.7 °F /  19.3 °C 29.78in /  1008.4hPa Calm     95% 0.00in /  0mm 0 W/m2
03:04 68.2 °F /  20.1 °C 66.7 °F /  19.3 °C 29.78in /  1008.4hPa Calm     95% 0.00in /  0mm 0 W/m2
03:09 68.2 °F /  20.1 °C 66.8 °F /  19.3 °C 29.78in /  1008.4hPa Calm     95% 0.00in /  0mm 0 W/m2
03:14 68.3 °F /  20.2 °C 66.8 °F /  19.3 °C 29.78in /  1008.4hPa Calm     95% 0.00in /  0mm 0 W/m2
03:19 68.3 °F /  20.2 °C 66.8 °F /  19.3 °C 29.78in /  1008.4hPa Calm     95% 0.00in /  0mm 0 W/m2
03:24 68.3 °F /  20.2 °C 66.8 °F /  19.3 °C 29.78in /  1008.4hPa Calm     95% 0.00in /  0mm 0 W/m2
03:29 68.3 °F /  20.2 °C 66.8 °F /  19.3 °C 29.78in /  1008.4hPa Calm     95% 0.00in /  0mm 0 W/m2
03:34 68.3 °F /  20.2 °C 66.8 °F /  19.3 °C 29.78in /  1008.4hPa Calm     95% 0.00in /  0mm 0 W/m2
03:39 68.2 °F /  20.1 °C 66.7 °F /  19.3 °C 29.78in /  1008.4hPa Calm     95% 0.00in /  0mm 0 W/m2
03:44 68.2 °F /  20.1 °C 66.7 °F /  19.3 °C 29.78in /  1008.4hPa Calm     95% 0.00in /  0mm 0 W/m2
03:49 68.1 °F /  20.1 °C 66.6 °F /  19.2 °C 29.78in /  1008.4hPa Calm     95% 0.00in /  0mm 0 W/m2
03:54 68.1 °F /  20.1 °C 66.6 °F /  19.2 °C 29.78in /  1008.4hPa Calm     95% 0.00in /  0mm 0 W/m2
03:59 68.1 °F /  20.1 °C 66.6 °F /  19.2 °C 29.78in /  1008.4hPa Calm     95% 0.00in /  0mm 0 W/m2
04:00 68.1 °F /  20.1 °C 66.6 °F /  19.2 °C 29.78in /  1008.4hPa Calm     95% 0.00in /  0mm 0 W/m2
04:09 68.3 °F /  20.2 °C 66.8 °F /  19.3 °C 29.78in /  1008.4hPa Calm     95% 0.00in /  0mm 0 W/m2
04:14 68.3 °F /  20.2 °C 66.8 °F /  19.3 °C 29.78in /  1008.4hPa Calm     95% 0.00in /  0mm 0 W/m2
04:19 68.3 °F /  20.2 °C 66.8 °F /  19.3 °C 29.78in /  1008.4hPa Calm     95% 0.00in /  0mm 0 W/m2
04:24 68.3 °F /  20.2 °C 66.8 °F /  19.3 °C 29.78in /  1008.4hPa Calm     95% 0.00in /  0mm 0 W/m2
04:29 68.3 °F /  20.2 °C 66.8 °F /  19.3 °C 29.78in /  1008.4hPa Calm     95% 0.00in /  0mm 0 W/m2
04:34 68.3 °F /  20.2 °C 66.8 °F /  19.3 °C 29.78in /  1008.4hPa Calm     95% 0.00in /  0mm 0 W/m2
04:39 68.4 °F /  20.2 °C 66.9 °F /  19.4 °C 29.78in /  1008.4hPa Calm   1mph /  1.6km/h 95% 0.00in /  0mm 0 W/m2
04:44 68.4 °F /  20.2 °C 66.9 °F /  19.4 °C 29.78in /  1008.4hPa Calm   1mph /  1.6km/h 95% 0.00in /  0mm 0 W/m2
04:49 68.5 °F /  20.3 °C 67 °F /  19.4 °C 29.78in /  1008.4hPa Calm   1mph /  1.6km/h 95% 0.00in /  0mm 0 W/m2
04:54 68.6 °F /  20.3 °C 67.1 °F /  19.5 °C 29.78in /  1008.4hPa Calm   1mph /  1.6km/h 95% 0.00in /  0mm 0 W/m2
04:59 68.6 °F /  20.3 °C 67.1 °F /  19.5 °C 29.77in /  1008hPa Calm   1mph /  1.6km/h 95% 0.00in /  0mm 0 W/m2
05:04 68.7 °F /  20.4 °C 67.2 °F /  19.6 °C 29.77in /  1008hPa Calm   1mph /  1.6km/h 95% 0.00in /  0mm 0 W/m2
05:09 68.7 °F /  20.4 °C 67.2 °F /  19.6 °C 29.77in /  1008hPa Calm     95% 0.00in /  0mm 0 W/m2
05:14 68.7 °F /  20.4 °C 67.2 °F /  19.6 °C 29.77in /  1008hPa Calm     95% 0.00in /  0mm 0 W/m2
05:19 68.8 °F /  20.4 °C 67.3 °F /  19.6 °C 29.77in /  1008hPa Calm     95% 0.00in /  0mm 0 W/m2
05:24 68.8 °F /  20.4 °C 67.3 °F /  19.6 °C 29.77in /  1008hPa Calm     95% 0.00in /  0mm 0 W/m2
05:29 68.8 °F /  20.4 °C 67.3 °F /  19.6 °C 29.77in /  1008hPa Calm     95% 0.00in /  0mm 0 W/m2
05:34 68.8 °F /  20.4 °C 67.3 °F /  19.6 °C 29.77in /  1008hPa Calm     95% 0.00in /  0mm 0 W/m2
05:39 68.9 °F /  20.5 °C 67.4 °F /  19.7 °C 29.77in /  1008hPa Calm     95% 0.00in /  0mm 0 W/m2
05:44 68.9 °F /  20.5 °C 67.4 °F /  19.7 °C 29.78in /  1008.4hPa Calm     95% 0.00in /  0mm 0 W/m2
05:49 69 °F /  20.6 °C 67.5 °F /  19.7 °C 29.78in /  1008.4hPa Calm     95% 0.00in /  0mm 0 W/m2
05:54 69.1 °F /  20.6 °C 67.6 °F /  19.8 °C 29.78in /  1008.4hPa Calm     95% 0.00in /  0mm 5 W/m2
05:59 69.2 °F /  20.7 °C 67.7 °F /  19.8 °C 29.78in /  1008.4hPa Calm     95% 0.00in /  0mm 7 W/m2
06:04 69.2 °F /  20.7 °C 67.7 °F /  19.8 °C 29.78in /  1008.4hPa Calm     95% 0.00in /  0mm 9 W/m2
06:09 69.3 °F /  20.7 °C 67.8 °F /  19.9 °C 29.78in /  1008.4hPa Calm     95% 0.00in /  0mm 7 W/m2
06:14 69.3 °F /  20.7 °C 67.9 °F /  19.9 °C 29.78in /  1008.4hPa Calm     95% 0.00in /  0mm 9 W/m2
06:19 69.4 °F /  20.8 °C 67.9 °F /  19.9 °C 29.78in /  1008.4hPa Calm     95% 0.00in /  0mm 16 W/m2
06:24 69.4 °F /  20.8 °C 67.9 °F /  19.9 °C 29.78in /  1008.4hPa Calm     95% 0.00in /  0mm 25 W/m2
06:29 69.5 °F /  20.8 °C 68 °F /  20 °C 29.78in /  1008.4hPa Calm     95% 0.00in /  0mm 26 W/m2
06:34 69.5 °F /  20.8 °C 68 °F /  20 °C 29.78in /  1008.4hPa Calm     95% 0.00in /  0mm 25 W/m2
06:39 69.6 °F /  20.9 °C 68.1 °F /  20.1 °C 29.79in /  1008.7hPa Calm     95% 0.00in /  0mm 19 W/m2
06:44 69.6 °F /  20.9 °C 68.1 °F /  20.1 °C 29.79in /  1008.7hPa Calm     95% 0.00in /  0mm 19 W/m2
06:49 69.7 °F /  20.9 °C 68.2 °F /  20.1 °C 29.78in /  1008.4hPa Calm     95% 0.00in /  0mm 49 W/m2
06:54 69.7 °F /  20.9 °C 68.3 °F /  20.2 °C 29.78in /  1008.4hPa Calm     95% 0.00in /  0mm 79 W/m2
06:59 70 °F /  21.1 °C 68.5 °F /  20.3 °C 29.78in /  1008.4hPa Calm     95% 0.00in /  0mm 79 W/m2
07:04 70.2 °F /  21.2 °C 68.7 °F /  20.4 °C 29.78in /  1008.4hPa Calm     95% 0.00in /  0mm 132 W/m2
07:09 70.5 °F /  21.4 °C 69 °F /  20.6 °C 29.78in /  1008.4hPa Calm     95% 0.00in /  0mm 132 W/m2
07:14 70.8 °F /  21.6 °C 69.3 °F /  20.7 °C 29.78in /  1008.4hPa Calm     95% 0.00in /  0mm 76 W/m2
07:19 71.1 °F /  21.7 °C 69.6 °F /  20.9 °C 29.79in /  1008.7hPa Calm     95% 0.00in /  0mm 172 W/m2
07:24 71.5 °F /  21.9 °C 70 °F /  21.1 °C 29.79in /  1008.7hPa Calm     95% 0.00in /  0mm 183 W/m2
07:29 71.9 °F /  22.2 °C 70.4 °F /  21.3 °C 29.78in /  1008.4hPa Calm     95% 0.00in /  0mm 207 W/m2
07:34 72.5 °F /  22.5 °C 70.8 °F /  21.6 °C 29.79in /  1008.7hPa Calm     94.3% 0.00in /  0mm 220 W/m2
07:39 73.2 °F /  22.9 °C 71.2 °F /  21.8 °C 29.78in /  1008.4hPa Calm     93.7% 0.00in /  0mm 241 W/m2
07:44 73.8 °F /  23.2 °C 71.4 °F /  21.9 °C 29.78in /  1008.4hPa Calm     92.4% 0.00in /  0mm 262 W/m2
07:49 74.3 °F /  23.5 °C 71.3 °F /  21.8 °C 29.78in /  1008.4hPa Calm   1mph /  1.6km/h 90.3% 0.00in /  0mm 294 W/m2
07:54 75 °F /  23.9 °C 71.5 °F /  21.9 °C 29.78in /  1008.4hPa Calm   1mph /  1.6km/h 88.9% 0.00in /  0mm 329 W/m2
07:59 75.8 °F /  24.3 °C 71.7 °F /  22.1 °C 29.78in /  1008.4hPa Calm   2mph /  3.2km/h 87.1% 0.00in /  0mm 329 W/m2
08:00 76.1 °F /  24.5 °C 71.3 °F /  21.8 °C 29.78in /  1008.4hPa Calm   2mph /  3.2km/h 85% 0.00in /  0mm 120 W/m2
08:09 76.8 °F /  24.9 °C 71.6 °F /  22 °C 29.78in /  1008.4hPa Calm     84% 0.00in /  0mm 367 W/m2
08:14 77.3 °F /  25.2 °C 71.7 °F /  22.1 °C 29.78in /  1008.4hPa Calm     82.9% 0.00in /  0mm 399 W/m2
08:19 77.9 °F /  25.5 °C 71.9 °F /  22.2 °C 29.78in /  1008.4hPa Calm   1mph /  1.6km/h 81.9% 0.00in /  0mm 404 W/m2
08:24 78.4 °F /  25.8 °C 71.9 °F /  22.2 °C 29.78in /  1008.4hPa Calm   1mph /  1.6km/h 80.4% 0.00in /  0mm 425 W/m2
08:29 79 °F /  26.1 °C 72.1 °F /  22.3 °C 29.78in /  1008.4hPa Calm   1mph /  1.6km/h 79.4% 0.00in /  0mm 441 W/m2
08:34 79.6 °F /  26.4 °C 72.2 °F /  22.3 °C 29.78in /  1008.4hPa Calm   1mph /  1.6km/h 78.1% 0.00in /  0mm 457 W/m2
08:39 80.2 °F /  26.8 °C 72.2 °F /  22.3 °C 29.77in /  1008hPa Calm     76.8% 0.00in /  0mm 471 W/m2
08:44 80.4 °F /  26.9 °C 71.8 °F /  22.1 °C 29.77in /  1008hPa Calm     75% 0.00in /  0mm 483 W/m2
08:49 80.6 °F /  27 °C 72.1 °F /  22.3 °C 29.77in /  1008hPa Calm     75.4% 0.00in /  0mm 494 W/m2
08:54 81.2 °F /  27.3 °C 72.9 °F /  22.7 °C 29.77in /  1008hPa Calm   1mph /  1.6km/h 75.9% 0.00in /  0mm 510 W/m2
08:59 81.7 °F /  27.6 °C 73.1 °F /  22.8 °C 29.77in /  1008hPa Calm   1mph /  1.6km/h 75.1% 0.00in /  0mm 526 W/m2
09:04 82.3 °F /  27.9 °C 73.7 °F /  23.2 °C 29.77in /  1008hPa Calm   1mph /  1.6km/h 75.3% 0.00in /  0mm 538 W/m2
09:08 82.8 °F /  28.2 °C 73.5 °F /  23.1 °C 29.77in /  1008hPa Calm     73.6% 0.00in /  0mm 548 W/m2
Hartford County Weather
Compliments of Weather Underground - 2 mb